Flight Track Log - Related Links

Times and Time Zones

All times are in EDT time to prevent confusion due to time zone crossing. See the CPZ5856 flight status page for this flight to view local times or setup timezone preferences in your user account.

Time Position Orientation Groundspeed Altitude Reporting Facility
EDT Latitude Longitude Course Direction KTS MPH feet Rate Location/Type
Mon 12:27:13 AM 33.9333 -118.4333 298° West 167 192 1,600  Level Southern California TRACON
Mon 12:28:25 AM 33.9236 -118.5206 262° West 216 249 3,900 2,284 Climbing Los Angeles Center
Mon 12:29:00 AM 34.1432 -118.6121 296° West  Level Estimated
Mon 12:29:27 AM 33.9136 -118.6108 262° West 267 307 6,700  Level Los Angeles Center
Mon 12:30:00 AM 34.2100 -118.6804 287° West  Level Estimated
Mon 12:30:28 AM 33.9039 -118.7075 263° West 293 337 9,400  Level Los Angeles Center
Mon 12:31:00 AM 34.2768 -118.7487 270° West  Level Estimated
Mon 12:31:30 AM 33.8942 -118.8161 264° West 321 369 11,200  Level Los Angeles Center
Mon 12:32:00 AM 34.3436 -118.8171 298° West  Level Estimated
Mon 12:32:31 AM 33.9008 -118.9350 274° West 363 418 13,800  Level Los Angeles Center
Mon 12:33:32 AM 33.9633 -119.0272 309° West 355 409 16,500 2,585 Climbing Los Angeles Center
Mon 12:34:34 AM 34.0328 -119.1225 311° West 376 433 19,100 2,516 Climbing Los Angeles Center
Mon 12:35:36 AM 34.1019 -119.2158 312° West 373 429 21,700 2,146 Climbing Los Angeles Center
Mon 12:36:37 AM 34.1719 -119.3106 312° West 380 437 23,500 1,721 Climbing Los Angeles Center
Mon 12:37:38 AM 34.2428 -119.4089 311° West 386 444 25,200 1,770 Climbing Los Angeles Center
Mon 12:38:39 AM 34.3317 -119.5306 312° West 402 463 27,100 1,366 Climbing Los Angeles Center
Mon 12:39:41 AM 34.4075 -119.6347 311° West 410 472 28,000 439 Climbing Los Angeles Center
Mon 12:40:42 AM 34.4892 -119.7453 312° West 440 506 28,000  Level Los Angeles Center
Mon 12:41:43 AM 34.5778 -119.8472 317° Northwest 440 506 28,000  Level Los Angeles Center
Mon 12:42:57 AM 34.6783 -119.9539 319° Northwest 439 505 28,000  Level Los Angeles Center
Mon 12:43:57 AM 34.7869 -120.0733 318° Northwest 439 505 28,000  Level Los Angeles Center
Mon 12:44:59 AM 34.8728 -120.1689 318° Northwest 439 505 28,000  Level Los Angeles Center
Mon 12:46:00 AM 34.9631 -120.2669 318° Northwest 439 505 28,000  Level Los Angeles Center
Mon 12:47:01 AM 35.0503 -120.3644 318° Northwest 432 497 28,000  Level Los Angeles Center
Mon 12:48:02 AM 35.1400 -120.4639 318° Northwest 436 502 28,000  Level Los Angeles Center
Mon 12:49:03 AM 35.2292 -120.5617 318° Northwest 435 501 28,000  Level Los Angeles Center
Mon 12:50:04 AM 35.3161 -120.6617 317° Northwest 433 498 28,000  Level Los Angeles Center
Mon 12:51:06 AM 35.4253 -120.7719 321° Northwest 425 489 28,000  Level Los Angeles Center
Mon 12:52:07 AM 35.5211 -120.8561 324° Northwest 425 489 28,000  Level Los Angeles Center
Mon 12:53:08 AM 35.6161 -120.9406 324° Northwest 422 486 28,000  Level Los Angeles Center
Mon 12:54:09 AM 35.7061 -121.0219 324° Northwest 419 482 28,000  Level Los Angeles Center
Mon 12:55:22 AM 35.8219 -121.1231 325° Northwest 422 486 28,000  Level Los Angeles Center
Mon 12:56:23 AM 35.9169 -121.2092 324° Northwest 422 486 28,000  Level Los Angeles Center
Mon 12:57:39 AM 36.0511 -121.3283 324° Northwest 422 486 28,000  Level Oakland Center
Mon 12:58:40 AM 36.1464 -121.4147 324° Northwest 422 486 28,000  Level Oakland Center
Mon 12:59:41 AM 36.2408 -121.5014 324° Northwest 421 484 28,000 -545 Level Oakland Center
Mon 01:00:41 AM 36.3339 -121.5858 324° Northwest 416 479 26,900 -1,587 Descending Oakland Center
Mon 01:01:42 AM 36.4206 -121.6656 323° Northwest 391 450 24,800 -1,967 Descending Oakland Center
Mon 01:02:43 AM 36.5025 -121.7400 324° Northwest 367 422 22,900 -1,918 Descending Oakland Center
Mon 01:03:44 AM 36.5864 -121.8186 323° Northwest 370 426 20,900 -1,918 Descending Oakland Center
Mon 01:04:45 AM 36.6656 -121.8914 324° Northwest 356 410 19,000 -1,835 Descending Oakland Center
Mon 01:05:45 AM 36.7450 -121.9600 325° Northwest 347 399 17,200 -1,785 Descending Oakland Center
Mon 01:06:46 AM 36.8347 -121.9886 346° North 336 387 15,400 -1,770 Descending Oakland Center
Mon 01:07:47 AM 36.9275 -122.0139 348° North 338 389 13,600 -1,770 Descending Oakland Center
Mon 01:08:48 AM 37.0203 -122.0392 348° North 339 390 11,800 -1,438 Descending Oakland Center
Mon 01:09:48 AM 37.1086 -122.0628 348° North 335 386 10,700 -992 Descending Oakland Center
Mon 01:10:49 AM 37.1869 -122.0831 348° North 309 356 9,800 -1,082 Descending Oakland Center
Mon 01:11:50 AM 37.2553 -122.0997 349° North 267 307 8,500 -1,488 Descending Oakland Center
Mon 01:12:50 AM 37.3350 -122.1219 348° North 249 287 6,800 -1,636 Descending Oakland Center
Mon 01:13:51 AM 37.3986 -122.1386 348° North 239 275 5,200 -1,488 Descending Oakland Center
Mon 01:14:51 AM 37.4608 -122.1558 348° North 232 267 3,800 -1,091 Descending Oakland Center
Mon 01:15:52 AM 37.5200 -122.1714 348° North 225 259 3,000 -738 Descending Oakland Center
Mon 01:16:53 AM 37.5553 -122.2197 313° West 213 245 2,300 -744 Descending Oakland Center
Mon 01:17:53 AM 37.5778 -122.2744 297° West 191 220 1,500 -744 Descending Oakland Center
Mon 01:18:54 AM 37.5967 -122.3169 299° West 161 185 800 -645 Descending Oakland Center
Mon 01:19:54 AM 37.6158 -122.3606 299° West 145 167 200 -600 Descending Oakland Center

Login

Don't have an account? Register now (free) for customized features, flight alerts, and more!